KBKB

Fullerton Landing Strip Airport

Louisiana, USA
METAR KBKB 210354Z AUTO VRB04KT 10SM CLR 27/25 A2999 RMK AO2 SLP178 T02720250
Observed Flight Rules
Aug-21 @ 03:54 UTC (16 minutes ago) Visual Flight Rules
Wind Visibility Clouds
Variable at 4 knots 10 miles
  • Clear skies
Temperatures Readings
Current 27°C / 81°F
Dewpoint 25°C / 77°F
Humidity 89%
Altimeter 29.99" Hg
Pressure 1017.8 hPa
Elevation 94
METAR KBKB 210354Z AUTO VRB04KT 10SM CLR 27/25 A2999 RMK AO2 SLP178 T02720250
Observed Flight Rules
Aug-21 @ 03:54 UTC
(16 minutes ago)
VFR
Wind Visibility
Variable at 4 knots 10 miles
Clouds
  • Clear skies
Temperature Dewpoint
27°C / 81°F 25°C / 77°F
Humidity Altimeter Pressure
89% 29.99" Hg 1017.8 hPa